createdAt,value
2022-11-16T00:00:28.513Z,10.38
2022-11-16T00:02:57.024Z,10.37
2022-11-16T00:05:28.538Z,10.42
2022-11-16T00:07:57.092Z,10.47
2022-11-16T00:10:26.772Z,10.47
2022-11-16T00:12:55.126Z,10.55
2022-11-16T00:15:23.497Z,10.49
2022-11-16T00:17:51.930Z,10.51
2022-11-16T00:20:20.371Z,10.51
2022-11-16T00:22:48.772Z,10.49
2022-11-16T00:25:17.144Z,10.44
2022-11-16T00:27:46.813Z,10.47
2022-11-16T00:30:15.704Z,10.48
2022-11-16T00:32:44.330Z,10.46
2022-11-16T00:35:12.796Z,10.43
2022-11-16T00:37:41.168Z,10.47
2022-11-16T00:40:10.964Z,10.50
2022-11-16T00:42:39.315Z,10.37
2022-11-16T00:45:10.708Z,10.42
2022-11-16T00:47:39.474Z,10.46
2022-11-16T00:50:08.184Z,10.41
2022-11-16T00:52:36.650Z,10.38
2022-11-16T00:55:06.101Z,10.40
2022-11-16T00:57:36.195Z,10.38
2022-11-16T01:00:06.337Z,10.37
2022-11-16T01:02:37.377Z,10.36
2022-11-16T01:05:06.861Z,10.39
2022-11-16T01:07:36.156Z,10.39
2022-11-16T01:10:07.108Z,10.39
2022-11-16T01:12:36.843Z,10.33
2022-11-16T01:15:08.809Z,10.26
2022-11-16T01:17:41.407Z,10.24
2022-11-16T01:20:14.394Z,10.23
2022-11-16T01:22:43.105Z,10.24
2022-11-16T01:25:12.817Z,10.25
2022-11-16T01:27:42.241Z,10.12
2022-11-16T01:30:17.187Z,10.08
2022-11-16T01:32:56.553Z,10.13
2022-11-16T01:35:25.066Z,10.20
2022-11-16T01:37:53.882Z,10.21
2022-11-16T01:40:22.229Z,10.13
2022-11-16T01:42:50.773Z,10.09
2022-11-16T01:45:29.218Z,10.00
2022-11-16T01:48:02.059Z,9.89
2022-11-16T01:50:34.233Z,9.92
2022-11-16T01:53:05.682Z,9.87
2022-11-16T01:55:42.755Z,9.82
2022-11-16T01:58:18.727Z,9.82
2022-11-16T02:00:50.660Z,9.77
2022-11-16T02:03:46.468Z,9.73
2022-11-16T02:06:33.656Z,9.63
2022-11-16T02:09:50.371Z,9.59
2022-11-16T02:12:38.987Z,9.61
2022-11-16T02:15:17.039Z,9.54
2022-11-16T02:18:04.300Z,9.52
2022-11-16T02:21:03.655Z,9.52
2022-11-16T02:23:56.809Z,9.53
2022-11-16T02:26:48.149Z,9.53
2022-11-16T02:29:23.641Z,9.47
2022-11-16T02:31:55.383Z,9.58
2022-11-16T02:34:24.766Z,9.54
2022-11-16T02:36:56.300Z,9.47
2022-11-16T02:39:28.359Z,9.51
2022-11-16T02:41:59.601Z,9.51
2022-11-16T02:44:33.590Z,9.46
2022-11-16T02:47:06.257Z,9.38
2022-11-16T02:49:37.497Z,9.39
2022-11-16T02:52:06.475Z,9.42
2022-11-16T02:54:34.940Z,9.40
2022-11-16T02:57:38.840Z,9.42
2022-11-16T03:00:16.772Z,9.38
2022-11-16T03:02:52.081Z,9.34
2022-11-16T03:05:31.881Z,9.27
2022-11-16T03:08:10.702Z,9.21
2022-11-16T03:11:00.433Z,9.23
2022-11-16T03:13:33.100Z,9.19
2022-11-16T03:16:09.059Z,9.16
2022-11-16T03:18:38.763Z,9.13
2022-11-16T03:21:14.342Z,9.08
2022-11-16T03:23:46.228Z,9.12
2022-11-16T03:26:19.532Z,9.21
2022-11-16T03:28:55.942Z,9.23
2022-11-16T03:31:30.715Z,9.17
2022-11-16T03:34:05.392Z,9.19
2022-11-16T03:36:36.717Z,9.10
2022-11-16T03:39:09.336Z,9.08
2022-11-16T03:41:42.413Z,9.03
2022-11-16T03:44:13.903Z,9.01
2022-11-16T03:46:45.475Z,9.03
2022-11-16T03:49:15.668Z,9.04
2022-11-16T03:51:44.844Z,8.97
2022-11-16T03:54:13.855Z,9.04
2022-11-16T03:56:42.247Z,9.00
2022-11-16T03:59:11.080Z,9.04
2022-11-16T04:01:44.496Z,9.04
2022-11-16T04:04:29.518Z,9.10
2022-11-16T04:07:15.955Z,9.11
2022-11-16T04:10:01.893Z,9.11
2022-11-16T04:12:48.259Z,9.11
2022-11-16T04:15:49.819Z,9.02
2022-11-16T04:18:36.287Z,8.91
2022-11-16T04:21:31.577Z,8.97
2022-11-16T04:24:15.375Z,8.94
2022-11-16T04:27:03.954Z,9.01
2022-11-16T04:29:33.876Z,8.90
2022-11-16T04:32:20.380Z,8.93
2022-11-16T04:35:06.626Z,8.77
2022-11-16T04:37:52.679Z,8.80
2022-11-16T04:40:30.224Z,8.74
2022-11-16T04:43:16.571Z,8.72
2022-11-16T04:46:03.980Z,8.60
2022-11-16T04:48:40.207Z,8.62
2022-11-16T04:51:09.183Z,8.57
2022-11-16T04:53:39.207Z,8.55
2022-11-16T04:56:18.567Z,8.48
2022-11-16T04:58:47.888Z,8.42
2022-11-16T05:01:17.103Z,8.36
2022-11-16T05:03:45.626Z,8.25
2022-11-16T05:06:14.724Z,8.16
2022-11-16T05:08:44.466Z,8.20
2022-11-16T05:11:13.045Z,8.16
2022-11-16T05:13:41.829Z,8.13
2022-11-16T05:16:10.610Z,8.06
2022-11-16T05:18:39.472Z,7.96
2022-11-16T05:21:07.613Z,7.92
2022-11-16T05:23:56.555Z,7.83
2022-11-16T05:26:29.352Z,7.64
2022-11-16T05:28:58.008Z,7.63
2022-11-16T05:31:26.505Z,7.58
2022-11-16T05:33:54.955Z,7.45
2022-11-16T05:36:24.143Z,7.43
2022-11-16T05:38:56.329Z,7.53
2022-11-16T05:41:30.073Z,7.55
2022-11-16T05:44:00.268Z,7.58
2022-11-16T05:46:28.723Z,7.70
2022-11-16T05:48:59.832Z,7.53
2022-11-16T05:51:31.224Z,7.53
2022-11-16T05:54:00.567Z,7.57
2022-11-16T05:56:31.000Z,7.53
2022-11-16T05:59:00.251Z,7.59
2022-11-16T06:01:28.673Z,7.57
2022-11-16T06:03:59.872Z,7.43
2022-11-16T06:06:28.426Z,7.40
2022-11-16T06:08:58.345Z,7.25
2022-11-16T06:11:35.357Z,7.16
2022-11-16T06:14:05.218Z,7.11
2022-11-16T06:16:35.348Z,7.15
2022-11-16T06:19:08.301Z,7.12
2022-11-16T06:21:42.030Z,7.09
2022-11-16T06:24:16.585Z,7.01
2022-11-16T06:26:47.972Z,7.11
2022-11-16T06:29:16.544Z,7.03
2022-11-16T06:31:45.027Z,6.96
2022-11-16T06:34:14.229Z,6.85
2022-11-16T06:36:42.672Z,6.84
2022-11-16T06:39:11.862Z,6.75
2022-11-16T06:41:41.604Z,6.66
2022-11-16T06:44:13.947Z,6.56
2022-11-16T06:46:52.817Z,6.50
2022-11-16T06:49:21.185Z,6.38
2022-11-16T06:51:51.591Z,6.31
2022-11-16T06:54:20.643Z,6.31
2022-11-16T06:56:49.093Z,6.37
2022-11-16T06:59:19.607Z,6.37
2022-11-16T07:01:48.238Z,6.30
2022-11-16T07:04:16.738Z,6.36
2022-11-16T07:06:52.526Z,6.26
2022-11-16T07:09:21.164Z,6.16
2022-11-16T07:11:49.630Z,6.27
2022-11-16T07:14:20.904Z,6.33
2022-11-16T07:16:54.890Z,6.50
2022-11-16T07:19:26.639Z,6.44
2022-11-16T07:21:55.019Z,6.29
2022-11-16T07:24:24.132Z,6.46
2022-11-16T07:26:52.544Z,6.37
2022-11-16T07:29:25.307Z,6.45
2022-11-16T07:32:22.770Z,6.37
2022-11-16T07:35:23.146Z,6.48
2022-11-16T07:37:52.167Z,6.50
2022-11-16T07:40:21.205Z,6.56
2022-11-16T07:42:50.517Z,6.52
2022-11-16T07:45:38.702Z,6.48
2022-11-16T07:48:09.688Z,6.48
2022-11-16T07:51:01.344Z,6.56
2022-11-16T07:53:31.654Z,6.56
2022-11-16T07:56:00.458Z,6.49
2022-11-16T07:58:33.661Z,6.57
2022-11-16T08:01:05.983Z,6.68
2022-11-16T08:03:36.856Z,6.77
2022-11-16T08:06:09.240Z,6.90
2022-11-16T08:08:37.774Z,7.10
2022-11-16T08:11:08.345Z,7.15
2022-11-16T08:13:38.580Z,7.21
2022-11-16T08:16:11.883Z,7.44
2022-11-16T08:18:41.648Z,7.63
2022-11-16T08:21:12.784Z,7.66
2022-11-16T08:23:41.835Z,8.80
2022-11-16T08:26:14.273Z,10.17
2022-11-16T08:28:45.581Z,11.11
2022-11-16T08:31:17.596Z,11.65
2022-11-16T08:33:48.880Z,11.62
2022-11-16T08:36:18.161Z,11.69
2022-11-16T08:38:49.814Z,11.64
2022-11-16T08:41:21.309Z,12.17
2022-11-16T08:43:53.118Z,13.12
2022-11-16T08:46:24.224Z,12.57
2022-11-16T08:49:01.127Z,11.19
2022-11-16T08:51:29.591Z,10.55
2022-11-16T08:54:06.133Z,10.64
2022-11-16T08:56:37.130Z,12.35
2022-11-16T08:59:06.674Z,13.39
2022-11-16T09:01:36.464Z,14.20
2022-11-16T09:04:05.434Z,14.19
2022-11-16T09:06:33.896Z,13.29
2022-11-16T09:09:02.359Z,12.27
2022-11-16T09:11:31.024Z,11.52
2022-11-16T09:13:59.973Z,11.03
2022-11-16T09:16:28.322Z,12.48
2022-11-16T09:18:58.095Z,13.34
2022-11-16T09:21:29.001Z,14.45
2022-11-16T09:23:58.597Z,15.16
2022-11-16T09:26:27.390Z,15.48
2022-11-16T09:28:58.127Z,15.92
2022-11-16T09:31:27.787Z,16.37
2022-11-16T09:33:58.892Z,16.21
2022-11-16T09:36:28.633Z,16.76
2022-11-16T09:42:01.024Z,17.40
2022-11-16T09:44:42.206Z,16.82
2022-11-16T09:47:17.376Z,16.83
2022-11-16T09:49:54.106Z,15.89
2022-11-16T09:52:31.590Z,14.94
2022-11-16T09:55:04.661Z,14.01
2022-11-16T09:57:40.305Z,15.28
2022-11-16T10:00:15.303Z,15.27
2022-11-16T10:02:48.664Z,14.38
2022-11-16T10:05:22.932Z,14.73
2022-11-16T10:07:55.923Z,14.13
2022-11-16T10:10:36.527Z,14.17
2022-11-16T10:13:13.688Z,14.74
2022-11-16T10:16:02.284Z,14.77
2022-11-16T10:18:47.391Z,15.18
2022-11-16T10:21:32.982Z,15.02
2022-11-16T10:24:42.864Z,16.48
2022-11-16T10:27:32.866Z,17.36
2022-11-16T10:30:10.328Z,16.58
2022-11-16T10:32:46.540Z,17.87
2022-11-16T10:35:19.951Z,16.74
2022-11-16T10:37:52.404Z,17.94
2022-11-16T10:40:24.560Z,17.01
2022-11-16T10:43:02.032Z,17.55
2022-11-16T10:45:39.067Z,15.79
2022-11-16T10:48:17.101Z,15.38
2022-11-16T10:50:47.748Z,14.22
2022-11-16T10:53:28.436Z,14.01
2022-11-16T10:56:12.469Z,13.74
2022-11-16T10:58:56.099Z,13.73
2022-11-16T11:01:36.735Z,13.70
2022-11-16T11:04:17.408Z,13.80
2022-11-16T11:06:47.058Z,13.80
2022-11-16T11:09:24.561Z,13.72
2022-11-16T11:12:22.511Z,13.81
2022-11-16T11:15:00.701Z,13.72
2022-11-16T11:17:29.993Z,13.48
2022-11-16T11:20:00.551Z,13.42
2022-11-16T11:22:29.351Z,13.59
2022-11-16T11:24:59.346Z,13.80
2022-11-16T11:27:33.369Z,13.93
2022-11-16T11:30:03.810Z,13.88
2022-11-16T11:32:35.679Z,14.13
2022-11-16T11:35:06.461Z,14.45
2022-11-16T11:37:38.684Z,14.60
2022-11-16T11:40:24.712Z,14.68
2022-11-16T11:42:56.252Z,14.75
2022-11-16T11:45:30.914Z,15.84
2022-11-16T11:48:03.061Z,17.95
2022-11-16T11:50:44.137Z,18.02
2022-11-16T11:53:22.284Z,17.71
2022-11-16T11:55:58.831Z,16.02
2022-11-16T11:58:31.418Z,15.62
2022-11-16T12:01:29.553Z,15.73
2022-11-16T12:04:35.954Z,15.60
2022-11-16T12:07:14.277Z,18.00
2022-11-16T12:09:51.547Z,17.59
2022-11-16T12:12:36.176Z,16.53
2022-11-16T12:15:27.575Z,18.13
2022-11-16T12:18:03.948Z,18.59
2022-11-16T12:20:43.079Z,17.74
2022-11-16T12:23:27.601Z,19.38
2022-11-16T12:26:03.569Z,19.64
2022-11-16T12:28:50.846Z,20.88
2022-11-16T12:31:45.275Z,19.55
2022-11-16T12:34:23.986Z,18.55
2022-11-16T12:37:00.720Z,16.39
2022-11-16T12:39:44.187Z,15.78
2022-11-16T12:42:30.903Z,15.44
2022-11-16T12:45:32.401Z,14.56
2022-11-16T12:48:19.819Z,14.43
2022-11-16T12:50:58.641Z,13.96
2022-11-16T12:53:52.625Z,13.76
2022-11-16T12:56:29.361Z,13.31
2022-11-16T12:59:42.941Z,13.12
2022-11-16T13:02:28.752Z,12.94
2022-11-16T13:04:59.206Z,12.92
2022-11-16T13:07:32.875Z,12.78
2022-11-16T13:10:06.208Z,12.92
2022-11-16T13:12:38.596Z,13.14
2022-11-16T13:15:23.387Z,13.97
2022-11-16T13:18:02.989Z,15.43
2022-11-16T13:20:39.593Z,17.41
2022-11-16T13:23:15.562Z,18.62
2022-11-16T13:25:49.933Z,19.42
2022-11-16T13:28:32.098Z,19.06
2022-11-16T13:31:07.127Z,17.17
2022-11-16T13:33:49.196Z,15.37
2022-11-16T13:36:45.455Z,14.06
2022-11-16T13:39:22.854Z,13.72
2022-11-16T13:42:05.996Z,13.18
2022-11-16T13:44:35.152Z,13.05
2022-11-16T13:47:07.096Z,12.91
2022-11-16T13:49:40.810Z,12.97
2022-11-16T13:52:46.856Z,13.03
2022-11-16T13:55:12.708Z,13.01
2022-11-16T13:57:51.777Z,12.73
2022-11-16T14:00:28.714Z,12.41
2022-11-16T14:03:32.310Z,12.29
2022-11-16T14:06:02.340Z,12.48
2022-11-16T14:08:48.277Z,13.53
2022-11-16T14:11:29.925Z,13.43
2022-11-16T14:14:00.161Z,14.01
2022-11-16T14:16:55.915Z,14.55
2022-11-16T14:19:54.885Z,13.86
2022-11-16T14:22:44.442Z,12.95
2022-11-16T14:25:27.568Z,12.53
2022-11-16T14:28:06.496Z,12.29
2022-11-16T14:30:49.619Z,12.10
2022-11-16T14:33:31.931Z,12.32
2022-11-16T14:36:03.300Z,13.50
2022-11-16T14:38:35.013Z,13.30
2022-11-16T14:41:05.925Z,13.00
2022-11-16T14:43:40.400Z,12.47
2022-11-16T14:46:17.065Z,11.83
2022-11-16T14:48:46.514Z,11.51
2022-11-16T14:51:19.826Z,11.38
2022-11-16T14:53:53.127Z,11.18
2022-11-16T14:56:21.771Z,11.06
2022-11-16T14:58:55.682Z,10.80
2022-11-16T15:01:28.330Z,10.71
2022-11-16T15:04:03.265Z,10.64
2022-11-16T15:06:37.863Z,10.52
2022-11-16T15:09:07.775Z,10.53
2022-11-16T15:12:04.156Z,10.48
2022-11-16T15:14:35.210Z,10.35
2022-11-16T15:17:04.101Z,10.31
2022-11-16T15:19:32.591Z,10.09
2022-11-16T15:22:02.521Z,10.08
2022-11-16T15:24:33.987Z,10.06
2022-11-16T15:27:11.926Z,9.93
2022-11-16T15:29:40.519Z,9.77
2022-11-16T15:32:17.057Z,9.61
2022-11-16T15:34:48.644Z,9.58
2022-11-16T15:37:27.549Z,9.51
2022-11-16T15:39:58.275Z,9.44
2022-11-16T15:42:28.688Z,9.45
2022-11-16T15:44:57.559Z,9.39
2022-11-16T15:47:26.939Z,9.21
2022-11-16T15:49:55.753Z,9.07
2022-11-16T15:52:43.430Z,8.94
2022-11-16T15:55:36.750Z,8.95
2022-11-16T15:58:15.088Z,8.87
2022-11-16T16:00:49.404Z,8.77
2022-11-16T16:03:21.650Z,8.71
2022-11-16T16:05:56.690Z,8.65
2022-11-16T16:08:32.106Z,8.56
2022-11-16T16:11:09.746Z,8.60
2022-11-16T16:13:40.201Z,8.61
2022-11-16T16:16:24.781Z,8.50
2022-11-16T16:18:54.543Z,8.38
2022-11-16T16:21:24.341Z,8.20
2022-11-16T16:23:54.950Z,8.13
2022-11-16T16:26:24.983Z,8.12
2022-11-16T16:28:53.716Z,8.12
2022-11-16T16:31:22.370Z,8.14
2022-11-16T16:33:50.825Z,8.17
2022-11-16T16:36:19.182Z,8.17
2022-11-16T16:38:47.639Z,8.18
2022-11-16T16:41:23.959Z,8.23
2022-11-16T16:43:54.574Z,8.21
2022-11-16T16:46:23.034Z,8.22
2022-11-16T16:48:51.570Z,8.27
2022-11-16T16:51:20.092Z,8.37
2022-11-16T16:53:48.561Z,8.35
2022-11-16T16:56:19.831Z,8.28
2022-11-16T16:58:48.343Z,8.11
2022-11-16T17:01:18.324Z,8.02
2022-11-16T17:03:46.865Z,8.00
2022-11-16T17:06:15.217Z,7.87
2022-11-16T17:08:43.642Z,7.80
2022-11-16T17:11:12.252Z,7.72
2022-11-16T17:13:40.745Z,7.54
2022-11-16T17:16:09.239Z,7.41
2022-11-16T17:18:39.018Z,7.50
2022-11-16T17:21:09.317Z,7.50
2022-11-16T17:23:38.259Z,7.43
2022-11-16T17:26:08.767Z,7.38
2022-11-16T17:28:37.147Z,7.27
2022-11-16T17:31:07.360Z,7.16
2022-11-16T17:33:36.059Z,7.11
2022-11-16T17:36:07.987Z,7.08
2022-11-16T17:38:36.643Z,6.99
2022-11-16T17:41:06.602Z,7.00
2022-11-16T17:43:36.068Z,6.91
2022-11-16T17:46:06.561Z,6.82
2022-11-16T17:48:35.141Z,6.74
2022-11-16T17:51:04.016Z,6.77
2022-11-16T17:53:37.851Z,6.85
2022-11-16T17:56:07.342Z,6.83
2022-11-16T17:58:35.811Z,6.89
2022-11-16T18:01:04.395Z,6.85
2022-11-16T18:03:33.168Z,6.86
2022-11-16T18:06:04.960Z,6.88
2022-11-16T18:08:35.578Z,6.92
2022-11-16T18:11:06.290Z,6.87
2022-11-16T18:13:35.455Z,6.87
2022-11-16T18:16:08.727Z,6.98
2022-11-16T18:18:37.812Z,7.07
2022-11-16T18:21:07.985Z,7.16
2022-11-16T18:23:39.229Z,7.14
2022-11-16T18:26:08.884Z,7.22
2022-11-16T18:28:39.010Z,7.20
2022-11-16T18:31:10.581Z,7.18
2022-11-16T18:33:39.723Z,7.20
2022-11-16T18:36:09.870Z,7.17
2022-11-16T18:38:40.254Z,7.23
2022-11-16T18:41:17.030Z,7.23
2022-11-16T18:43:50.132Z,7.27
2022-11-16T18:46:19.372Z,7.24
2022-11-16T18:48:48.283Z,7.43
2022-11-16T18:51:18.144Z,7.45
2022-11-16T18:53:48.413Z,7.48
2022-11-16T18:56:17.640Z,7.52
2022-11-16T18:58:51.388Z,7.57
2022-11-16T19:01:24.034Z,7.59
2022-11-16T19:03:53.298Z,7.57
2022-11-16T19:06:22.605Z,7.55
2022-11-16T19:08:59.310Z,7.51
2022-11-16T19:11:29.251Z,7.52
2022-11-16T19:14:00.431Z,7.57
2022-11-16T19:16:29.105Z,7.76
2022-11-16T19:18:57.784Z,7.88
2022-11-16T19:21:26.541Z,7.94
2022-11-16T19:23:57.552Z,8.06
2022-11-16T19:26:27.826Z,8.21
2022-11-16T19:28:56.965Z,8.44
2022-11-16T19:31:27.137Z,8.51
2022-11-16T19:33:59.934Z,8.56
2022-11-16T19:36:29.693Z,8.60
2022-11-16T19:38:59.619Z,8.66
2022-11-16T19:41:29.496Z,8.70
2022-11-16T19:44:01.445Z,8.78
2022-11-16T19:46:31.395Z,8.75
2022-11-16T19:49:00.426Z,8.65
2022-11-16T19:51:30.594Z,8.65
2022-11-16T19:54:01.244Z,8.75
2022-11-16T19:56:29.833Z,8.81
2022-11-16T19:58:58.230Z,8.84
2022-11-16T20:01:33.388Z,8.93
2022-11-16T20:04:03.462Z,8.91
2022-11-16T20:06:34.255Z,8.93
2022-11-16T20:09:08.570Z,8.98
2022-11-16T20:11:38.965Z,8.99
2022-11-16T20:14:10.206Z,9.06
2022-11-16T20:16:40.613Z,9.11
2022-11-16T20:19:10.504Z,9.23
2022-11-16T20:21:40.821Z,9.23
2022-11-16T20:24:12.959Z,9.35
2022-11-16T20:26:43.592Z,9.41
2022-11-16T20:29:12.718Z,9.38
2022-11-16T20:31:42.884Z,9.50
2022-11-16T20:34:14.406Z,9.55
2022-11-16T20:36:44.340Z,9.65
2022-11-16T20:39:15.482Z,9.62
2022-11-16T20:41:44.798Z,9.66
2022-11-16T20:44:17.009Z,9.60
2022-11-16T20:46:46.042Z,9.52
2022-11-16T20:49:14.724Z,9.47
2022-11-16T20:51:43.267Z,9.45
2022-11-16T20:54:11.666Z,9.37
2022-11-16T20:56:41.652Z,9.39
2022-11-16T20:59:09.993Z,9.45
2022-11-16T21:01:38.521Z,9.39
2022-11-16T21:04:08.395Z,9.43
2022-11-16T21:06:36.806Z,9.44
2022-11-16T21:09:05.331Z,9.38
2022-11-16T21:11:55.683Z,9.38
2022-11-16T21:14:24.697Z,9.38
2022-11-16T21:16:53.105Z,9.31
2022-11-16T21:19:21.692Z,9.27
2022-11-16T21:21:50.025Z,9.16
2022-11-16T21:24:18.593Z,9.13
2022-11-16T21:26:46.939Z,9.24
2022-11-16T21:29:15.485Z,9.28
2022-11-16T21:31:45.145Z,9.31
2022-11-16T21:34:13.495Z,9.27
2022-11-16T21:36:41.864Z,9.30
2022-11-16T21:39:10.281Z,9.33
2022-11-16T21:41:38.628Z,9.33
2022-11-16T21:44:06.981Z,9.47
2022-11-16T21:46:35.288Z,9.49
2022-11-16T21:49:05.228Z,9.52
2022-11-16T21:51:33.651Z,9.57
2022-11-16T21:54:02.060Z,9.52
2022-11-16T21:56:30.512Z,9.49
2022-11-16T21:58:58.952Z,9.39
2022-11-16T22:01:47.400Z,9.39
2022-11-16T22:04:34.569Z,9.43
2022-11-16T22:07:20.449Z,9.51
2022-11-16T22:09:48.872Z,9.55
2022-11-16T22:12:17.951Z,9.55
2022-11-16T22:14:46.418Z,9.57
2022-11-16T22:17:14.789Z,9.58
2022-11-16T22:19:44.635Z,9.57
2022-11-16T22:22:12.998Z,9.60
2022-11-16T22:24:41.380Z,9.62
2022-11-16T22:27:09.996Z,9.61
2022-11-16T22:29:38.585Z,9.54
2022-11-16T22:32:09.535Z,9.45
2022-11-16T22:34:37.930Z,9.41
2022-11-16T22:37:07.698Z,9.35
2022-11-16T22:39:36.580Z,9.32
2022-11-16T22:42:05.330Z,9.31
2022-11-16T22:44:33.650Z,9.37
2022-11-16T22:47:02.067Z,9.38
2022-11-16T22:49:30.523Z,9.42
2022-11-16T22:51:58.983Z,9.47
2022-11-16T22:54:30.162Z,9.53
2022-11-16T22:56:58.569Z,9.57
2022-11-16T22:59:27.047Z,9.57
2022-11-16T23:01:55.417Z,9.54
2022-11-16T23:04:24.033Z,9.42
2022-11-16T23:06:52.537Z,9.47
2022-11-16T23:09:20.960Z,9.51
2022-11-16T23:12:22.842Z,9.53
2022-11-16T23:15:08.725Z,9.54
2022-11-16T23:17:37.098Z,9.67
2022-11-16T23:20:23.647Z,9.66
2022-11-16T23:23:09.490Z,9.69
2022-11-16T23:25:55.921Z,9.74
2022-11-16T23:28:25.975Z,9.65
2022-11-16T23:30:54.631Z,9.60
2022-11-16T23:33:43.174Z,9.47
2022-11-16T23:36:11.863Z,9.53
2022-11-16T23:38:40.696Z,9.45
2022-11-16T23:41:26.872Z,9.52
2022-11-16T23:43:59.863Z,9.43
2022-11-16T23:46:29.351Z,9.28
2022-11-16T23:48:58.475Z,9.18
2022-11-16T23:51:27.123Z,9.08
2022-11-16T23:53:55.710Z,9.02
2022-11-16T23:56:24.729Z,9.01
2022-11-16T23:58:58.187Z,8.99
